Time;durP1;ratioP1;P1;durP2;ratioP2;P2;SDS_P1;SDS_P2;PMS_P1;PMS_P2;Temp;Humidity;BMP_temperature;BMP_pressure;BME280_temperature;BME280_humidity;BME280_pressure;Samples;Min_cycle;Max_cycle;Signal;HPM_P1;HPM_P2
2022/10/07 00:01:48;;;;;;;19.92;6.10;;;;;;;11.07;74.11;102625.16;4990900;28;20037;-56
2022/10/07 00:04:16;;;;;;;17.48;5.93;;;;;;;10.99;74.22;102624.56;4990324;28;20432;-56
2022/10/07 00:06:41;;;;;;;18.33;6.38;;;;;;;11.10;74.00;102625.91;4982465;28;20033;-57
2022/10/07 00:09:06;;;;;;;14.45;5.47;;;;;;;11.06;73.27;102620.72;5010466;28;20033;-56
2022/10/07 00:11:32;;;;;;;19.65;6.43;;;;;;;11.06;73.96;102618.97;5009297;28;20422;-56
2022/10/07 00:14:01;;;;;;;18.67;5.88;;;;;;;11.01;73.72;102617.38;4989533;28;20033;-56
2022/10/07 00:16:29;;;;;;;17.20;5.67;;;;;;;10.99;73.84;102622.75;4990176;28;20120;-56
2022/10/07 00:18:56;;;;;;;18.02;5.75;;;;;;;10.99;73.60;102612.09;4991297;28;20285;-56
2022/10/07 00:21:24;;;;;;;15.07;5.60;;;;;;;10.91;74.14;102619.50;4990654;28;20040;-56
2022/10/07 00:23:50;;;;;;;17.17;5.85;;;;;;;10.95;73.85;102605.16;4991120;28;20026;-56
2022/10/07 00:26:21;;;;;;;17.60;5.72;;;;;;;10.86;74.05;102602.84;4990624;28;20053;-56
2022/10/07 00:28:47;;;;;;;20.90;5.78;;;;;;;10.83;74.43;102613.59;4973760;28;20011;-56
2022/10/07 00:31:18;;;;;;;16.67;6.07;;;;;;;10.73;74.51;102604.19;4989626;28;20031;-56
2022/10/07 00:33:48;;;;;;;13.45;5.32;;;;;;;10.80;74.87;102597.72;4989949;28;20412;-57
2022/10/07 00:36:19;;;;;;;18.52;6.15;;;;;;;10.78;74.88;102603.09;4990652;28;20076;-56
2022/10/07 00:38:49;;;;;;;15.02;5.63;;;;;;;10.75;74.95;102603.22;4990252;28;20033;-56
2022/10/07 00:41:21;;;;;;;13.13;5.35;;;;;;;10.77;74.49;102598.72;4990538;28;20080;-56
2022/10/07 00:43:47;;;;;;;15.30;5.50;;;;;;;10.68;75.01;102594.59;5007871;28;20496;-56
2022/10/07 00:46:24;;;;;;;17.17;6.20;;;;;;;10.71;75.29;102590.06;5009786;28;20073;-56
2022/10/07 00:48:49;;;;;;;17.75;5.35;;;;;;;10.65;75.53;102594.69;4991579;28;20033;-56
2022/10/07 00:51:16;;;;;;;17.67;5.32;;;;;;;10.62;75.04;102586.81;5009661;28;20037;-56
2022/10/07 00:53:44;;;;;;;19.88;6.13;;;;;;;10.56;75.54;102583.47;4992014;28;20108;-56
2022/10/07 00:56:10;;;;;;;17.45;6.30;;;;;;;10.50;75.72;102578.38;5008014;28;20026;-56
2022/10/07 00:58:38;;;;;;;16.35;5.72;;;;;;;10.53;75.86;102581.81;5009751;28;20118;-56
2022/10/07 01:01:04;;;;;;;16.02;5.75;;;;;;;10.53;76.02;102578.28;4991966;28;20064;-56
2022/10/07 01:03:33;;;;;;;16.83;5.40;;;;;;;10.46;76.06;102580.28;4993707;28;20035;-56
2022/10/07 01:05:58;;;;;;;19.00;6.22;;;;;;;10.43;75.89;102567.09;4991351;28;20042;-56
2022/10/07 01:08:25;;;;;;;20.13;6.38;;;;;;;10.46;76.15;102575.81;4990090;28;20483;-56
2022/10/07 01:11:13;;;;;;;18.13;5.90;;;;;;;10.44;76.82;102564.38;4990167;28;20026;-56
2022/10/07 01:13:48;;;;;;;17.75;6.03;;;;;;;10.32;76.41;102554.16;4990767;28;20113;-56
2022/10/07 01:16:52;;;;;;;16.90;6.05;;;;;;;10.40;76.34;102567.19;4989743;28;20042;-56
2022/10/07 01:19:30;;;;;;;17.33;5.57;;;;;;;10.32;76.91;102561.25;4989507;28;20034;-56
2022/10/07 01:22:05;;;;;;;18.70;6.28;;;;;;;10.35;76.76;102562.06;4989933;28;20033;-56
2022/10/07 01:24:40;;;;;;;19.60;6.18;;;;;;;10.38;76.28;102556.63;5007343;28;20029;-56
2022/10/07 01:27:14;;;;;;;17.17;5.50;;;;;;;10.35;76.47;102553.19;4992475;28;20033;-56
2022/10/07 01:29:54;;;;;;;17.77;6.28;;;;;;;10.32;76.76;102543.50;5008823;28;20021;-57
2022/10/07 01:32:23;;;;;;;20.05;6.28;;;;;;;10.30;76.77;102544.50;5009350;28;20026;-56
2022/10/07 01:34:53;;;;;;;18.42;5.80;;;;;;;10.22;76.85;102532.31;5008728;28;20112;-56
2022/10/07 01:37:19;;;;;;;;;;;;;;;10.46;75.31;102535.94;5007169;28;20417;-56
2022/10/07 01:39:50;;;;;;;18.88;6.07;;;;;;;10.17;76.38;102523.59;5009275;28;19940;-56
2022/10/07 01:42:18;;;;;;;18.30;5.75;;;;;;;10.15;77.41;102528.13;5009271;28;20421;-56
2022/10/07 01:44:48;;;;;;;15.82;5.95;;;;;;;10.08;77.50;102525.72;5008852;28;20113;-56
2022/10/07 01:47:13;;;;;;;;;;;;;;;10.30;75.46;102523.25;5008158;28;20151;-56
2022/10/07 01:49:39;;;;;;;18.20;5.88;;;;;;;10.18;77.05;102511.22;5008475;28;20412;-56
2022/10/07 01:52:07;;;;;;;16.17;5.78;;;;;;;10.11;77.93;102510.53;4991042;28;20499;-56
2022/10/07 01:54:54;;;;;;;17.50;6.30;;;;;;;10.14;78.20;102507.75;4989214;28;20105;-57
2022/10/07 01:57:25;;;;;;;15.40;6.30;;;;;;;10.09;77.27;102506.19;4989227;28;20052;-56
2022/10/07 01:59:59;;;;;;;15.60;6.40;;;;;;;10.10;77.68;102498.16;4990105;28;20030;-57
2022/10/07 02:03:02;;;;;;;19.95;6.97;;;;;;;10.07;77.72;102492.09;4989284;28;20571;-56
2022/10/07 02:05:27;;;;;;;17.63;6.70;;;;;;;9.99;78.06;102487.03;4971244;28;20062;-57
2022/10/07 02:08:01;;;;;;;14.27;6.35;;;;;;;10.00;78.01;102481.69;4989235;28;20057;-56
2022/10/07 02:10:30;;;;;;;23.25;6.65;;;;;;;9.94;78.62;102475.69;4972647;28;20022;-56
2022/10/07 02:13:10;;;;;;;19.58;6.78;;;;;;;9.94;78.63;102479.22;4952483;28;20030;-56
2022/10/07 02:16:06;;;;;;;21.50;7.18;;;;;;;9.92;78.60;102482.84;4969929;28;20525;-56
2022/10/07 02:18:34;;;;;;;17.45;7.30;;;;;;;9.87;79.19;102472.38;4991508;28;20042;-57
2022/10/07 02:21:07;;;;;;;19.40;6.88;;;;;;;9.89;79.14;102478.50;4990926;28;20108;-56
2022/10/07 02:23:37;;;;;;;20.27;6.45;;;;;;;9.87;78.92;102468.84;5008468;28;20022;-57
2022/10/07 02:26:04;;;;;;;18.67;6.28;;;;;;;9.77;79.07;102462.97;4991287;28;20516;-56
2022/10/07 02:28:34;;;;;;;24.10;6.88;;;;;;;9.69;79.21;102457.06;5006456;28;20026;-56
2022/10/07 02:31:02;;;;;;;15.13;6.40;;;;;;;9.82;79.16;102466.34;5008700;28;20223;-57
2022/10/07 02:33:29;;;;;;;21.13;6.72;;;;;;;9.78;79.30;102454.94;5007857;28;20022;-57
2022/10/07 02:35:58;;;;;;;17.27;6.50;;;;;;;9.85;78.92;102455.59;5008607;28;20075;-57
2022/10/07 02:38:25;;;;;;;20.40;6.65;;;;;;;9.83;78.64;102452.16;4982159;28;20022;-56
2022/10/07 02:41:00;;;;;;;20.92;6.35;;;;;;;9.83;78.99;102448.63;4971632;28;20054;-56
2022/10/07 02:43:35;;;;;;;16.88;5.78;;;;;;;9.66;79.09;102447.41;4988722;28;20034;-57
2022/10/07 02:46:06;;;;;;;21.25;6.68;;;;;;;9.72;79.11;102443.66;4988864;28;20026;-57
2022/10/07 02:48:40;;;;;;;17.30;7.00;;;;;;;9.72;79.13;102446.31;5001434;28;20082;-56
2022/10/07 02:51:10;;;;;;;18.33;7.00;;;;;;;9.60;79.83;102439.63;4989037;28;20057;-56
2022/10/07 02:53:37;;;;;;;15.68;6.28;;;;;;;9.58;80.05;102437.94;4972727;28;20034;-56
2022/10/07 02:56:06;;;;;;;18.30;6.35;;;;;;;9.46;80.48;102439.22;4991909;28;20052;-56
2022/10/07 02:58:33;;;;;;;19.50;6.88;;;;;;;9.51;80.18;102430.19;4992658;28;20552;-56
2022/10/07 03:01:00;;;;;;;15.50;6.25;;;;;;;9.53;79.75;102428.34;4972428;28;20242;-57
2022/10/07 03:03:26;;;;;;;18.80;6.60;;;;;;;9.51;80.10;102430.19;4954987;28;20023;-57
2022/10/07 03:05:52;;;;;;;19.98;6.75;;;;;;;9.50;80.23;102423.16;4972445;28;20124;-56
2022/10/07 03:08:20;;;;;;;20.92;7.35;;;;;;;9.43;80.11;102418.06;4967316;28;20026;-56
2022/10/07 03:10:45;;;;;;;15.30;6.55;;;;;;;9.40;80.27;102426.13;4993401;28;20108;-57
2022/10/07 03:13:11;;;;;;;14.88;6.38;;;;;;;9.37;80.46;102408.53;4993689;28;20109;-57
2022/10/07 03:15:39;;;;;;;17.55;6.57;;;;;;;9.49;80.02;102417.88;4977731;28;20125;-56
2022/10/07 03:18:06;;;;;;;19.48;6.70;;;;;;;9.53;79.87;102412.41;5010048;28;20103;-55
2022/10/07 03:20:31;;;;;;;22.98;7.05;;;;;;;9.47;79.88;102409.06;5009832;28;20065;-56
2022/10/07 03:22:58;;;;;;;14.18;6.43;;;;;;;9.42;79.80;102408.38;4993850;28;20045;-57
2022/10/07 03:25:25;;;;;;;14.45;6.03;;;;;;;9.44;79.90;102409.19;4993167;28;20025;-57
2022/10/07 03:27:53;;;;;;;17.35;6.80;;;;;;;9.35;79.90;102394.41;4988696;28;20030;-57
2022/10/07 03:30:21;;;;;;;16.35;6.68;;;;;;;9.44;79.59;102410.06;4973995;28;20598;-56
2022/10/07 03:32:48;;;;;;;21.13;6.88;;;;;;;9.39;79.79;102400.50;4991390;28;20022;-57
2022/10/07 03:35:13;;;;;;;20.90;6.90;;;;;;;9.39;80.33;102395.22;4991015;28;20022;-57
2022/10/07 03:37:41;;;;;;;15.70;6.63;;;;;;;9.32;79.67;102395.41;4991374;28;20042;-57
2022/10/07 03:40:07;;;;;;;19.30;7.03;;;;;;;9.37;80.02;102391.72;4958258;28;20506;-57
2022/10/07 03:42:35;;;;;;;23.67;7.45;;;;;;;9.35;80.04;102391.75;4973973;28;20072;-57
2022/10/07 03:45:00;;;;;;;16.15;6.93;;;;;;;9.29;80.35;102384.00;4973827;28;20076;-57
2022/10/07 03:47:26;;;;;;;19.80;7.22;;;;;;;9.31;80.27;102391.00;4973999;28;20562;-57
2022/10/07 03:49:52;;;;;;;19.33;6.82;;;;;;;9.27;80.45;102392.03;4990759;28;20034;-57
2022/10/07 03:52:20;;;;;;;27.20;7.00;;;;;;;9.26;80.51;102394.72;4992194;28;20030;-55
2022/10/07 03:54:45;;;;;;;22.70;7.32;;;;;;;9.22;81.06;102393.97;4990716;28;20516;-56
2022/10/07 03:59:54;;;;;;;15.27;6.82;;;;;;;9.19;80.88;102394.06;4991018;28;20076;-56
2022/10/07 04:02:25;;;;;;;23.65;7.53;;;;;;;9.21;80.99;102394.03;4991920;28;20536;-56
2022/10/07 04:04:51;;;;;;;16.10;6.75;;;;;;;9.18;80.74;102391.47;4971731;28;20042;-57
2022/10/07 04:07:18;;;;;;;22.58;6.45;;;;;;;9.09;81.24;102384.66;4990764;28;20050;-56
2022/10/07 04:09:43;;;;;;;17.27;6.90;;;;;;;9.13;80.98;102388.94;4990500;28;20434;-56
2022/10/07 04:12:12;;;;;;;21.48;6.68;;;;;;;9.10;81.28;102386.41;4990828;28;20065;-56
2022/10/07 04:14:39;;;;;;;19.83;6.50;;;;;;;9.13;81.56;102373.03;4991733;28;20473;-56
2022/10/07 04:17:04;;;;;;;18.15;6.53;;;;;;;9.16;81.16;102380.88;4973510;28;20075;-56
2022/10/07 04:19:30;;;;;;;18.33;7.20;;;;;;;9.21;80.86;102372.78;4990308;28;20069;-56
2022/10/07 04:21:55;;;;;;;21.25;7.22;;;;;;;9.17;81.01;102371.13;4973526;28;20043;-56
2022/10/07 04:24:21;;;;;;;22.55;7.20;;;;;;;9.13;80.52;102373.03;4973941;28;20059;-56
2022/10/07 04:26:47;;;;;;;23.95;7.30;;;;;;;9.10;80.24;102357.19;4990729;28;20038;-56
2022/10/07 04:29:12;;;;;;;19.35;6.78;;;;;;;9.10;80.66;102378.44;4973241;28;20440;-57
2022/10/07 04:31:37;;;;;;;21.08;7.32;;;;;;;9.07;80.68;102371.44;4990665;28;20033;-55
2022/10/07 04:34:03;;;;;;;22.15;7.63;;;;;;;9.04;81.04;102375.97;4980659;28;20414;-56
2022/10/07 04:36:28;;;;;;;22.65;7.88;;;;;;;8.95;81.06;102371.84;5010024;28;20038;-56
2022/10/07 04:38:56;;;;;;;21.75;7.60;;;;;;;8.96;81.63;102373.56;5009658;28;20037;-56
2022/10/07 04:41:22;;;;;;;19.33;7.15;;;;;;;8.89;82.01;102377.34;4992527;28;20438;-56
2022/10/07 04:43:51;;;;;;;21.15;7.00;;;;;;;8.90;81.71;102376.41;4990661;28;20034;-56
2022/10/07 04:46:16;;;;;;;18.65;6.75;;;;;;;8.93;81.73;102372.78;5009951;28;20037;-56
2022/10/07 04:48:44;;;;;;;18.00;6.95;;;;;;;8.92;81.84;102376.38;4991746;28;20034;-56
2022/10/07 04:51:10;;;;;;;21.98;7.43;;;;;;;8.83;81.81;102354.50;4992416;28;20113;-57
2022/10/07 04:53:37;;;;;;;23.02;7.30;;;;;;;8.86;81.84;102372.13;4985584;28;20122;-56
2022/10/07 04:56:05;;;;;;;17.38;7.18;;;;;;;8.94;81.62;102366.56;4972923;28;20033;-56
2022/10/07 04:58:31;;;;;;;20.42;7.32;;;;;;;8.92;81.61;102366.63;4990112;28;20435;-56
2022/10/07 05:00:58;;;;;;;26.20;7.32;;;;;;;8.88;81.21;102364.97;4972861;28;20117;-56
2022/10/07 05:03:26;;;;;;;26.83;7.03;;;;;;;8.79;81.74;102344.91;4973411;28;20026;-56
2022/10/07 05:05:54;;;;;;;26.40;7.97;;;;;;;8.84;81.43;102358.91;4989433;28;20087;-56
2022/10/07 05:08:23;;;;;;;22.38;7.63;;;;;;;8.79;81.85;102350.19;4990035;28;20030;-56
2022/10/07 05:10:54;;;;;;;20.75;7.20;;;;;;;8.84;81.92;102347.41;4989789;28;20029;-56
2022/10/07 05:13:19;;;;;;;17.63;6.55;;;;;;;8.81;82.37;102344.88;4995864;28;20110;-56
2022/10/07 05:15:52;;;;;;;16.70;6.70;;;;;;;8.81;81.96;102351.03;5008748;28;20079;-55
2022/10/07 05:18:19;;;;;;;23.52;6.82;;;;;;;8.83;82.29;102346.56;5009382;28;20033;-57
2022/10/07 05:20:47;;;;;;;19.23;7.55;;;;;;;8.90;82.07;102346.34;5008692;28;20026;-56
2022/10/07 05:23:14;;;;;;;22.15;6.53;;;;;;;8.85;82.27;102350.03;4990057;28;20056;-56
2022/10/07 05:25:40;;;;;;;18.65;6.38;;;;;;;8.86;81.86;102333.19;5009420;28;20022;-57
2022/10/07 05:28:06;;;;;;;23.30;6.63;;;;;;;8.87;82.14;102339.34;5009620;28;20129;-56
2022/10/07 05:30:31;;;;;;;18.52;6.70;;;;;;;8.86;82.07;102342.94;5009066;28;20096;-56
2022/10/07 05:32:57;;;;;;;21.83;6.95;;;;;;;8.82;82.14;102338.63;5003824;28;20026;-56
2022/10/07 05:35:22;;;;;;;18.27;6.40;;;;;;;8.81;82.20;102336.91;4987815;28;20128;-56
2022/10/07 05:37:52;;;;;;;15.27;5.68;;;;;;;8.84;82.41;102336.81;4989675;28;20023;-55
2022/10/07 05:40:18;;;;;;;18.38;6.18;;;;;;;8.78;82.19;102334.34;4989575;28;20025;-56
2022/10/07 05:42:43;;;;;;;16.48;6.43;;;;;;;8.75;82.68;102326.50;4989854;28;20034;-56
2022/10/07 05:45:09;;;;;;;16.80;5.97;;;;;;;8.70;82.82;102326.63;4989864;28;20073;-56
2022/10/07 05:47:34;;;;;;;20.42;6.22;;;;;;;8.73;82.64;102337.13;4989938;28;20091;-56
2022/10/07 05:50:00;;;;;;;24.95;6.75;;;;;;;8.72;82.68;102334.53;4988875;28;20030;-56
2022/10/07 05:52:26;;;;;;;15.48;6.55;;;;;;;8.75;83.00;102332.66;4974832;28;20066;-56
2022/10/07 05:54:51;;;;;;;20.30;6.18;;;;;;;8.74;83.15;102328.28;5008814;28;20026;-56
2022/10/07 05:57:17;;;;;;;17.70;6.20;;;;;;;8.71;82.88;102324.88;5008883;28;20113;-56
2022/10/07 05:59:43;;;;;;;19.67;6.47;;;;;;;8.66;82.92;102322.34;4990950;28;20123;-56
2022/10/07 06:02:17;;;;;;;17.48;6.22;;;;;;;8.69;83.16;102324.91;4975746;28;20560;-56
2022/10/07 06:04:43;;;;;;;20.95;6.13;;;;;;;8.71;83.24;102320.41;4989328;28;20509;-55
2022/10/07 06:07:09;;;;;;;17.63;5.90;;;;;;;8.67;83.07;102326.72;4971789;28;20061;-56
2022/10/07 06:15:04;;;;;;;19.92;7.00;;;;;;;8.66;83.60;102317.03;4974563;28;20100;-55
2022/10/07 06:17:30;;;;;;;25.55;6.43;;;;;;;8.59;83.61;102308.41;4989927;28;20051;-56
2022/10/07 06:19:55;;;;;;;19.13;6.60;;;;;;;8.70;83.44;102310.72;4970817;28;20041;-57
2022/10/07 06:22:23;;;;;;;15.52;5.15;;;;;;;8.71;83.23;102312.47;4955599;28;20030;-57
2022/10/07 06:24:50;;;;;;;20.55;6.43;;;;;;;8.72;83.85;102311.53;4971482;28;20588;-57
2022/10/07 06:27:16;;;;;;;16.27;5.97;;;;;;;8.74;83.81;102314.16;4990190;28;20034;-56
2022/10/07 06:29:42;;;;;;;17.00;5.95;;;;;;;8.76;83.62;102314.94;4991820;28;20036;-56
2022/10/07 06:32:07;;;;;;;16.73;5.97;;;;;;;8.79;83.85;102320.16;4991369;28;20038;-55
2022/10/07 06:34:33;;;;;;;18.98;6.07;;;;;;;8.79;83.77;102307.75;4974104;28;20384;-55
2022/10/07 06:36:58;;;;;;;16.55;5.80;;;;;;;8.81;83.79;102307.72;4990747;28;20037;-56
2022/10/07 06:39:24;;;;;;;17.77;6.05;;;;;;;8.90;83.69;102307.41;5011539;28;20446;-57
2022/10/07 06:41:53;;;;;;;18.38;5.32;;;;;;;8.87;83.70;102311.03;5011768;28;20022;-57
2022/10/07 06:44:18;;;;;;;15.90;6.03;;;;;;;8.94;84.00;102308.19;4994828;28;20109;-56
2022/10/07 06:46:44;;;;;;;18.65;6.13;;;;;;;8.96;83.93;102306.34;5010064;28;20130;-56
2022/10/07 06:49:09;;;;;;;14.10;5.13;;;;;;;9.01;84.02;102315.03;5010830;28;20026;-56
2022/10/07 06:51:35;;;;;;;13.20;5.88;;;;;;;9.04;83.70;102307.84;4995217;28;20030;-57
2022/10/07 06:54:02;;;;;;;19.90;5.47;;;;;;;9.07;83.99;102307.75;4992082;28;20407;-56
2022/10/07 06:56:28;;;;;;;21.65;5.65;;;;;;;9.13;83.71;102305.81;5005655;28;20098;-57
2022/10/07 06:58:53;;;;;;;17.52;6.13;;;;;;;9.18;83.11;102311.84;4993945;28;20481;-57
2022/10/07 07:01:19;;;;;;;20.80;6.05;;;;;;;9.24;83.55;102316.94;4993981;28;20038;-57
2022/10/07 07:03:45;;;;;;;16.98;5.50;;;;;;;9.25;83.11;102322.19;4993238;28;20453;-56
2022/10/07 07:06:10;;;;;;;20.55;5.72;;;;;;;9.30;83.09;102314.94;4992117;28;20034;-57
2022/10/07 07:08:37;;;;;;;17.65;6.22;;;;;;;9.36;82.96;102316.50;4993787;28;20117;-56
2022/10/07 07:13:56;;;;;;;25.42;6.20;;;;;;;9.42;82.96;102308.34;5011123;28;20449;-57
2022/10/07 07:16:23;;;;;;;19.73;6.03;;;;;;;9.45;82.74;102312.69;4977443;28;20051;-56
2022/10/07 07:18:57;;;;;;;16.38;6.38;;;;;;;9.56;82.79;102310.50;4991346;28;20095;-56
2022/10/07 07:21:24;;;;;;;12.80;5.13;;;;;;;9.58;82.45;102310.44;4991163;28;20113;-57
2022/10/07 07:23:50;;;;;;;18.23;6.03;;;;;;;9.59;82.79;102321.03;4991355;28;20550;-57
2022/10/07 07:26:17;;;;;;;15.60;5.53;;;;;;;9.65;81.79;102318.16;5002106;28;20033;-57
2022/10/07 07:28:43;;;;;;;16.65;5.90;;;;;;;9.66;81.95;102314.56;5010054;28;20083;-57
2022/10/07 07:31:12;;;;;;;18.10;5.57;;;;;;;9.70;82.30;102318.84;5011015;28;20022;-57
2022/10/07 07:33:38;;;;;;;16.08;5.60;;;;;;;9.75;81.77;102313.38;5010599;28;20086;-57
2022/10/07 07:36:15;;;;;;;16.67;5.28;;;;;;;9.90;81.68;102322.56;4995704;28;20034;-57
2022/10/07 07:38:52;;;;;;;16.73;5.82;;;;;;;9.90;81.17;102314.59;4991207;28;20026;-57
2022/10/07 07:41:20;;;;;;;18.83;5.43;;;;;;;10.00;81.03;102316.88;4991351;28;20031;-56
2022/10/07 07:43:51;;;;;;;24.27;5.83;;;;;;;10.01;81.46;102310.63;4990981;28;20028;-57
2022/10/07 07:46:19;;;;;;;16.00;5.43;;;;;;;10.15;81.46;102309.25;4974690;28;20103;-56
2022/10/07 07:48:45;;;;;;;20.92;5.45;;;;;;;10.22;80.21;102318.72;4990655;28;20080;-57
2022/10/07 07:51:14;;;;;;;18.20;5.78;;;;;;;10.28;80.80;102307.03;4991371;28;20102;-57
2022/10/07 07:53:40;;;;;;;25.90;6.10;;;;;;;10.34;80.44;102307.66;5006008;28;20083;-56
2022/10/07 07:56:06;;;;;;;20.02;5.68;;;;;;;10.39;79.93;102318.97;4990319;28;20439;-57
2022/10/07 07:58:31;;;;;;;20.17;5.63;;;;;;;10.44;80.04;102316.13;5010352;28;20034;-57
2022/10/07 08:01:02;;;;;;;21.27;5.85;;;;;;;10.52;80.08;102318.50;5010267;28;20022;-57
2022/10/07 08:03:28;;;;;;;18.85;6.10;;;;;;;10.61;79.85;102318.13;5010309;28;20056;-57
2022/10/07 08:05:56;;;;;;;19.00;6.43;;;;;;;10.65;78.98;102317.97;4974994;28;20026;-57
2022/10/07 08:08:22;;;;;;;16.83;5.30;;;;;;;10.71;78.73;102313.31;5010560;28;20026;-57
2022/10/07 08:10:47;;;;;;;14.45;5.75;;;;;;;10.81;78.66;102310.22;5010258;28;20472;-57
2022/10/07 08:13:12;;;;;;;14.40;5.43;;;;;;;10.94;78.29;102304.38;5010241;28;20097;-57
2022/10/07 08:15:40;;;;;;;21.90;5.70;;;;;;;10.98;77.75;102301.53;4994570;28;20432;-57
2022/10/07 08:18:07;;;;;;;17.70;5.25;;;;;;;11.20;78.49;102300.63;4973748;28;20058;-57
2022/10/07 08:20:32;;;;;;;19.70;6.22;;;;;;;11.30;77.77;102294.00;4956802;28;20030;-56
2022/10/07 08:22:58;;;;;;;12.15;5.05;;;;;;;11.37;76.80;102298.13;4973359;28;20111;-57
2022/10/07 08:25:24;;;;;;;14.82;5.50;;;;;;;11.49;77.11;102292.25;4973893;28;20044;-56
2022/10/07 08:27:50;;;;;;;19.45;5.70;;;;;;;11.51;75.97;102297.53;4989584;28;20030;-57
2022/10/07 08:30:18;;;;;;;18.10;5.00;;;;;;;11.51;76.71;102289.53;4990286;28;20037;-57
2022/10/07 08:32:44;;;;;;;17.33;5.35;;;;;;;11.59;75.76;102295.41;4990707;28;20399;-56
2022/10/07 08:35:09;;;;;;;21.10;6.05;;;;;;;11.62;76.24;102302.38;5003217;28;20029;-56
2022/10/07 08:37:34;;;;;;;12.25;5.05;;;;;;;11.69;76.32;102296.72;5010169;28;20026;-58
2022/10/07 08:40:00;;;;;;;17.13;5.18;;;;;;;11.73;76.04;102287.63;4992283;28;20026;-56
2022/10/07 08:42:36;;;;;;;13.98;4.80;;;;;;;11.74;75.50;102292.06;5010183;28;20108;-57
2022/10/07 08:45:02;;;;;;;13.77;5.20;;;;;;;11.76;75.50;102276.84;5007970;28;20030;-57
2022/10/07 08:47:44;;;;;;;18.90;5.38;;;;;;;11.86;75.92;102285.34;5009882;28;20045;-57
2022/10/07 08:50:20;;;;;;;17.83;5.53;;;;;;;11.92;75.70;102277.06;5009436;28;20463;-57
2022/10/07 08:52:58;;;;;;;18.83;4.57;;;;;;;12.06;76.40;102276.44;5009439;28;20500;-57
2022/10/07 08:55:27;;;;;;;21.90;4.93;;;;;;;12.22;75.83;102271.25;4991808;28;20038;-57
2022/10/07 08:58:04;;;;;;;18.92;5.57;;;;;;;12.32;74.87;102274.31;4989961;28;20022;-57
2022/10/07 09:00:39;;;;;;;15.75;5.15;;;;;;;12.37;75.11;102267.84;4993453;28;20030;-57
2022/10/07 09:03:26;;;;;;;14.00;4.22;;;;;;;12.47;75.30;102260.25;5009837;28;20021;-57
2022/10/07 09:05:53;;;;;;;13.57;4.50;;;;;;;12.61;74.04;102252.44;5009550;28;20040;-57
2022/10/07 09:08:30;;;;;;;16.92;4.57;;;;;;;12.54;74.53;102227.00;4992231;28;20022;-57
2022/10/07 09:11:14;;;;;;;15.23;4.93;;;;;;;12.78;73.14;102248.94;4991237;28;20087;-57
2022/10/07 09:13:45;;;;;;;16.45;5.80;;;;;;;13.07;73.35;102249.28;5009040;28;20037;-57
2022/10/07 09:16:15;;;;;;;14.70;4.63;;;;;;;13.27;72.09;102254.50;4992187;28;20114;-56
2022/10/07 09:18:59;;;;;;;14.88;4.22;;;;;;;13.46;72.34;102254.38;5008891;28;20029;-57
2022/10/07 09:22:09;;;;;;;15.60;4.45;;;;;;;13.67;72.20;102243.50;4976087;28;20026;-56
2022/10/07 09:24:35;;;;;;;15.68;4.95;;;;;;;13.89;70.32;102257.44;5009539;28;20038;-57
2022/10/07 09:27:06;;;;;;;13.77;4.53;;;;;;;14.03;69.36;102249.53;5009383;28;20029;-57
2022/10/07 09:29:31;;;;;;;13.45;4.55;;;;;;;14.13;69.28;102241.84;5009398;28;20560;-56
2022/10/07 09:31:57;;;;;;;16.40;4.22;;;;;;;14.31;67.95;102239.97;4994140;28;20133;-56
2022/10/07 09:34:26;;;;;;;19.85;4.15;;;;;;;14.38;68.33;102248.50;4970855;28;20038;-57
2022/10/07 09:37:11;;;;;;;14.70;4.07;;;;;;;14.54;68.39;102230.66;4989824;28;20037;-57
2022/10/07 09:39:40;;;;;;;10.95;3.92;;;;;;;14.63;67.02;102237.28;4975761;28;20052;-57
2022/10/07 09:42:08;;;;;;;12.90;4.07;;;;;;;14.79;65.53;102218.50;4990549;28;20113;-57
2022/10/07 09:44:34;;;;;;;17.67;3.93;;;;;;;14.88;65.76;102226.00;4972127;28;20023;-56
2022/10/07 09:47:20;;;;;;;17.60;4.35;;;;;;;14.88;66.21;102213.50;4989515;28;20277;-57
2022/10/07 09:49:51;;;;;;;15.20;4.32;;;;;;;14.91;64.54;102225.81;4988870;28;20023;-56
2022/10/07 09:52:24;;;;;;;17.98;4.47;;;;;;;14.91;64.07;102221.34;4972905;28;20031;-57
2022/10/07 09:54:52;;;;;;;18.60;3.88;;;;;;;15.01;63.11;102229.69;4989238;28;20022;-57
2022/10/07 09:57:28;;;;;;;13.80;4.40;;;;;;;15.20;62.63;102211.53;4989016;28;20030;-57
2022/10/07 10:00:12;;;;;;;17.00;4.40;;;;;;;15.42;63.36;102218.28;4989404;28;20037;-57
2022/10/07 10:02:39;;;;;;;19.85;4.47;;;;;;;15.70;62.69;102213.91;4990580;28;20037;-57
2022/10/07 10:05:05;;;;;;;15.00;3.70;;;;;;;15.95;63.71;102211.41;4992806;28;20038;-57
2022/10/07 10:07:36;;;;;;;14.57;3.75;;;;;;;16.23;61.16;102212.28;4992680;28;20110;-57
2022/10/07 10:10:20;;;;;;;17.88;3.95;;;;;;;16.30;60.85;102208.25;4992684;28;20408;-57
2022/10/07 10:12:47;;;;;;;14.07;3.92;;;;;;;16.46;59.69;102203.59;5008639;28;20061;-57
2022/10/07 10:15:39;;;;;;;12.23;3.42;;;;;;;16.64;59.59;102201.50;5012210;28;20029;-58
2022/10/07 10:18:30;;;;;;;14.88;4.00;;;;;;;16.94;60.87;102208.47;4994594;28;20046;-57
2022/10/07 10:21:26;;;;;;;13.52;3.70;;;;;;;17.09;57.90;102190.44;5011999;28;20174;-57
2022/10/07 10:23:54;;;;;;;12.20;3.70;;;;;;;17.22;55.37;102180.56;4991089;28;20419;-57
2022/10/07 10:26:26;;;;;;;11.85;3.70;;;;;;;17.24;55.67;102178.63;4992047;28;20022;-56
2022/10/07 10:28:51;;;;;;;12.75;3.40;;;;;;;17.14;54.84;102182.91;4974763;28;20087;-57
2022/10/07 10:31:40;;;;;;;13.80;3.75;;;;;;;17.53;55.83;102181.97;4980926;28;20105;-57
2022/10/07 10:34:26;;;;;;;19.17;4.00;;;;;;;17.72;54.95;102168.03;4993701;28;20038;-57
2022/10/07 10:37:02;;;;;;;10.43;3.15;;;;;;;18.08;54.73;102164.50;5009965;28;20029;-57
2022/10/07 10:39:28;;;;;;;13.10;3.10;;;;;;;18.42;52.49;102164.72;4996605;28;20075;-57
2022/10/07 10:41:58;;;;;;;14.13;3.50;;;;;;;18.59;51.71;102149.97;4974756;28;20451;-57
2022/10/07 10:44:49;;;;;;;9.68;3.47;;;;;;;18.81;51.23;102146.50;4992051;28;20389;-57
2022/10/07 10:47:51;;;;;;;11.48;3.15;;;;;;;19.10;49.89;102149.63;4991984;28;20019;-57
2022/10/07 10:50:31;;;;;;;12.82;3.55;;;;;;;19.14;50.10;102139.44;4992771;28;20405;-57
2022/10/07 10:53:26;;;;;;;11.25;3.28;;;;;;;19.21;49.31;102146.94;4993175;28;20499;-57
2022/10/07 10:56:01;;;;;;;17.40;3.33;;;;;;;19.59;49.89;102136.75;4991911;28;20035;-57
2022/10/07 10:58:57;;;;;;;13.30;3.35;;;;;;;19.93;48.00;102134.91;4991800;28;20034;-57
2022/10/07 11:01:35;;;;;;;15.88;3.42;;;;;;;20.34;47.91;102131.47;4990099;28;20038;-57
2022/10/07 11:04:17;;;;;;;14.83;2.63;;;;;;;20.72;46.39;102129.22;4992379;28;20034;-56
2022/10/07 11:06:49;;;;;;;8.88;2.80;;;;;;;20.82;44.60;102128.31;4991813;28;20278;-57
2022/10/07 11:09:39;;;;;;;10.07;2.97;;;;;;;20.68;45.38;102128.63;4974019;28;20030;-58
2022/10/07 11:12:21;;;;;;;13.43;3.50;;;;;;;20.42;44.89;102118.16;4991853;28;20038;-57
2022/10/07 11:14:53;;;;;;;14.77;2.83;;;;;;;20.57;44.32;102124.13;5010746;28;20033;-57
2022/10/07 11:17:26;;;;;;;11.43;2.80;;;;;;;20.81;43.37;102123.03;5011143;28;20125;-57
2022/10/07 11:20:11;;;;;;;9.73;2.58;;;;;;;21.15;43.28;102110.13;4993129;28;20018;-57
2022/10/07 11:22:43;;;;;;;9.38;2.83;;;;;;;21.65;41.33;102110.22;5003133;28;20071;-57
2022/10/07 11:25:35;;;;;;;10.65;2.78;;;;;;;21.87;42.39;102116.38;5006208;28;20034;-58
2022/10/07 11:28:13;;;;;;;13.48;3.33;;;;;;;21.67;42.44;102094.66;4991471;28;20026;-57
2022/10/07 11:30:48;;;;;;;9.80;2.97;;;;;;;;;;4991426;28;20026;-57
2022/10/07 11:33:30;;;;;;;11.50;3.35;;;;;;;22.59;39.96;102096.16;4983243;28;20026;-57
2022/10/07 11:36:07;;;;;;;9.82;2.67;;;;;;;23.06;39.04;102080.84;5010985;28;20041;-57
2022/10/07 11:38:37;;;;;;;10.10;2.97;;;;;;;23.15;38.55;102070.94;5010501;28;20358;-57
2022/10/07 11:41:06;;;;;;;11.88;2.95;;;;;;;23.42;37.86;102067.38;4977385;28;20018;-57
2022/10/07 11:43:34;;;;;;;;;;;;;;;24.33;39.46;102059.16;4993154;28;20469;-57
2022/10/07 11:46:26;;;;;;;10.90;2.75;;;;;;;24.33;37.26;102055.59;4991378;28;19921;-57
2022/10/07 11:49:21;;;;;;;11.27;2.65;;;;;;;24.18;37.39;102047.16;4990844;28;20473;-58